Days, Mississippi
Current Conditions -  °F | °C
As of 9:28 AM on Monday 22 Dec 2014 (Local Time) from KMEM Reporting Station
Haze Haze  
Wind Chill: 52°   Ceiling: 400
Heat Index: 52°   Visibility: 1mi
Dew Point: 48°   Wind: 10mph
Humidity: 88%   Direction: 170°S
Pressure: 29.81"   Gusts: NA
Location:  34.9155°N, 90.1878°W
Report Text: KMEM 221528Z 17009KT 1SM BR OVC004 11/09 A2981 RMK AO2 SFC VIS 6
Loading
Personal Weather Stations






























Interactive Weather Map New forecast layout! Learn more

10-Day Weather Forecast

Advertisements
Track Severe Weather on mobile